createdAt,value
2023-06-14T00:00:22.734Z,19.55
2023-06-14T00:00:52.744Z,19.54
2023-06-14T00:01:22.735Z,19.54
2023-06-14T00:01:52.762Z,19.54
2023-06-14T00:02:22.817Z,19.53
2023-06-14T00:02:54.954Z,19.53
2023-06-14T00:03:22.814Z,19.54
2023-06-14T00:03:52.800Z,19.54
2023-06-14T00:04:22.848Z,19.55
2023-06-14T00:04:52.736Z,19.54
2023-06-14T00:05:22.738Z,19.54
2023-06-14T00:05:52.736Z,19.53
2023-06-14T00:06:22.737Z,19.54
2023-06-14T00:06:52.748Z,19.56
2023-06-14T00:07:22.745Z,19.56
2023-06-14T00:07:52.744Z,19.56
2023-06-14T00:08:22.739Z,19.56
2023-06-14T00:08:52.741Z,19.57
2023-06-14T00:09:22.737Z,19.56
2023-06-14T00:09:52.740Z,19.55
2023-06-14T00:10:22.744Z,19.55
2023-06-14T00:10:52.742Z,19.55
2023-06-14T00:11:22.742Z,19.54
2023-06-14T00:11:52.748Z,19.51
2023-06-14T00:12:22.740Z,19.49
2023-06-14T00:12:52.739Z,19.49
2023-06-14T00:13:22.741Z,19.51
2023-06-14T00:13:52.753Z,19.53
2023-06-14T00:14:22.747Z,19.55
2023-06-14T00:14:52.742Z,19.56
2023-06-14T00:15:22.744Z,19.56
2023-06-14T00:15:52.742Z,19.55
2023-06-14T00:16:22.753Z,19.53
2023-06-14T00:16:52.804Z,19.5
2023-06-14T00:17:22.762Z,19.48
2023-06-14T00:17:52.796Z,19.47
2023-06-14T00:18:22.742Z,19.47
2023-06-14T00:18:52.744Z,19.46
2023-06-14T00:19:22.750Z,19.45
2023-06-14T00:19:52.748Z,19.46
2023-06-14T00:20:22.741Z,19.46
2023-06-14T00:20:52.753Z,19.46
2023-06-14T00:21:22.740Z,19.48
2023-06-14T00:21:52.751Z,19.47
2023-06-14T00:22:22.748Z,19.48
2023-06-14T00:22:52.746Z,19.48
2023-06-14T00:23:22.744Z,19.49
2023-06-14T00:23:52.785Z,19.49
2023-06-14T00:24:22.817Z,19.48
2023-06-14T00:24:54.307Z,19.47
2023-06-14T00:25:28.495Z,19.46
2023-06-14T00:25:53.594Z,19.45
2023-06-14T00:26:22.750Z,19.45
2023-06-14T00:26:52.748Z,19.47
2023-06-14T00:27:22.748Z,19.5
2023-06-14T00:27:52.748Z,19.53
2023-06-14T00:28:22.747Z,19.56
2023-06-14T00:28:52.748Z,19.57
2023-06-14T00:29:22.745Z,19.59
2023-06-14T00:29:52.746Z,19.61
2023-06-14T00:30:22.749Z,19.62
2023-06-14T00:30:52.757Z,19.63
2023-06-14T00:31:22.746Z,19.64
2023-06-14T00:31:52.828Z,19.66
2023-06-14T00:32:22.823Z,19.68
2023-06-14T00:32:53.154Z,19.69
2023-06-14T00:33:22.821Z,19.7
2023-06-14T00:33:52.747Z,19.69
2023-06-14T00:34:22.753Z,19.69
2023-06-14T00:34:52.744Z,19.68
2023-06-14T00:35:22.750Z,19.69
2023-06-14T00:35:52.748Z,19.68
2023-06-14T00:36:22.752Z,19.68
2023-06-14T00:36:52.759Z,19.68
2023-06-14T00:37:22.751Z,19.67
2023-06-14T00:37:52.760Z,19.64
2023-06-14T00:38:22.755Z,19.63
2023-06-14T00:38:52.750Z,19.65
2023-06-14T00:39:22.759Z,19.66
2023-06-14T00:39:52.748Z,19.66
2023-06-14T00:40:22.753Z,19.66
2023-06-14T00:40:52.752Z,19.67
2023-06-14T00:41:22.752Z,19.68
2023-06-14T00:41:52.750Z,19.7
2023-06-14T00:42:22.758Z,19.71
2023-06-14T00:42:52.761Z,19.73
2023-06-14T00:43:22.749Z,19.73
2023-06-14T00:43:52.759Z,19.72
2023-06-14T00:44:22.761Z,19.71
2023-06-14T00:44:52.757Z,19.72
2023-06-14T00:45:22.760Z,19.73
2023-06-14T00:45:52.753Z,19.72
2023-06-14T00:46:22.792Z,19.72
2023-06-14T00:46:52.933Z,19.72
2023-06-14T00:47:22.782Z,19.7
2023-06-14T00:47:52.790Z,19.7
2023-06-14T00:48:22.752Z,19.69
2023-06-14T00:48:52.753Z,19.68
2023-06-14T00:49:22.767Z,19.69
2023-06-14T00:49:52.750Z,19.7
2023-06-14T00:50:22.768Z,19.69
2023-06-14T00:50:52.795Z,19.68
2023-06-14T00:51:22.761Z,19.67
2023-06-14T00:51:52.784Z,19.66
2023-06-14T00:52:22.755Z,19.68
2023-06-14T00:52:52.770Z,19.69
2023-06-14T00:53:22.760Z,19.72
2023-06-14T00:53:52.751Z,19.74
2023-06-14T00:54:22.760Z,19.75
2023-06-14T00:54:52.761Z,19.75
2023-06-14T00:55:22.754Z,19.76
2023-06-14T00:55:52.762Z,19.75
2023-06-14T00:56:22.756Z,19.74
2023-06-14T00:56:52.754Z,19.73
2023-06-14T00:57:22.755Z,19.73
2023-06-14T00:57:52.755Z,19.73
2023-06-14T00:58:22.758Z,19.72
2023-06-14T00:58:52.759Z,19.72
2023-06-14T00:59:22.754Z,19.74
2023-06-14T00:59:52.773Z,19.77
2023-06-14T01:00:22.769Z,19.8
2023-06-14T01:00:52.767Z,19.83
2023-06-14T01:01:22.775Z,19.84
2023-06-14T01:01:52.839Z,19.85
2023-06-14T01:02:22.768Z,19.88
2023-06-14T01:02:52.806Z,19.88
2023-06-14T01:03:22.842Z,19.88
2023-06-14T01:03:52.881Z,19.89
2023-06-14T01:04:22.761Z,19.91
2023-06-14T01:04:52.804Z,19.91
2023-06-14T01:05:22.759Z,19.92
2023-06-14T01:05:52.762Z,19.91
2023-06-14T01:06:22.764Z,19.88
2023-06-14T01:06:52.764Z,19.87
2023-06-14T01:07:22.774Z,19.88
2023-06-14T01:07:52.777Z,19.89
2023-06-14T01:08:22.779Z,19.92
2023-06-14T01:08:52.784Z,19.93
2023-06-14T01:09:22.763Z,19.94
2023-06-14T01:09:52.765Z,19.94
2023-06-14T01:10:22.766Z,19.92
2023-06-14T01:10:52.765Z,19.92
2023-06-14T01:11:22.764Z,19.92
2023-06-14T01:11:52.778Z,19.9
2023-06-14T01:12:22.785Z,19.87
2023-06-14T01:12:52.785Z,19.88
2023-06-14T01:13:22.775Z,19.88
2023-06-14T01:13:52.766Z,19.87
2023-06-14T01:14:22.768Z,19.87
2023-06-14T01:14:52.765Z,19.85
2023-06-14T01:15:22.771Z,19.83
2023-06-14T01:15:52.766Z,19.82
2023-06-14T01:16:22.785Z,19.82
2023-06-14T01:16:52.779Z,19.82
2023-06-14T01:17:22.811Z,19.82
2023-06-14T01:17:52.939Z,19.81
2023-06-14T01:18:22.768Z,19.81
2023-06-14T01:18:52.770Z,19.81
2023-06-14T01:19:22.768Z,19.79
2023-06-14T01:19:52.766Z,19.78
2023-06-14T01:20:22.766Z,19.76
2023-06-14T01:20:52.779Z,19.75
2023-06-14T01:21:22.775Z,19.75
2023-06-14T01:21:52.768Z,19.75
2023-06-14T01:22:22.769Z,19.77
2023-06-14T01:22:52.795Z,19.8
2023-06-14T01:23:22.772Z,19.84
2023-06-14T01:23:52.851Z,19.86
2023-06-14T01:24:22.811Z,19.86
2023-06-14T01:24:52.767Z,19.86
2023-06-14T01:25:22.770Z,19.85
2023-06-14T01:25:52.768Z,19.85
2023-06-14T01:26:22.769Z,19.85
2023-06-14T01:26:52.767Z,19.82
2023-06-14T01:27:22.768Z,19.8
2023-06-14T01:27:52.767Z,19.82
2023-06-14T01:28:22.778Z,19.84
2023-06-14T01:28:52.770Z,19.87
2023-06-14T01:29:22.783Z,19.89
2023-06-14T01:29:52.769Z,19.91
2023-06-14T01:30:22.782Z,19.91
2023-06-14T01:30:52.772Z,19.9
2023-06-14T01:31:22.837Z,19.92
2023-06-14T01:31:52.771Z,19.92
2023-06-14T01:32:22.899Z,19.94
2023-06-14T01:32:52.805Z,19.95
2023-06-14T01:33:22.779Z,19.97
2023-06-14T01:33:52.771Z,19.97
2023-06-14T01:34:22.818Z,19.97
2023-06-14T01:34:52.795Z,19.98
2023-06-14T01:35:22.831Z,19.97
2023-06-14T01:35:52.767Z,19.95
2023-06-14T01:36:22.770Z,19.93
2023-06-14T01:36:52.778Z,19.94
2023-06-14T01:37:22.772Z,19.94
2023-06-14T01:37:52.774Z,19.95
2023-06-14T01:38:22.776Z,19.98
2023-06-14T01:38:52.776Z,20.02
2023-06-14T01:39:22.772Z,20.05
2023-06-14T01:39:52.773Z,20.06
2023-06-14T01:40:22.796Z,20.07
2023-06-14T01:40:52.781Z,20.06
2023-06-14T01:41:22.777Z,20.05
2023-06-14T01:41:52.776Z,20.05
2023-06-14T01:42:22.795Z,20.02
2023-06-14T01:42:52.775Z,19.96
2023-06-14T01:43:22.771Z,19.94
2023-06-14T01:43:52.779Z,19.94
2023-06-14T01:44:22.776Z,19.94
2023-06-14T01:44:52.772Z,19.94
2023-06-14T01:45:22.783Z,19.93
2023-06-14T01:45:52.823Z,19.92
2023-06-14T01:46:22.835Z,19.9
2023-06-14T01:46:52.779Z,19.89
2023-06-14T01:47:22.906Z,19.88
2023-06-14T01:47:52.879Z,19.87
2023-06-14T01:48:22.788Z,19.86
2023-06-14T01:48:52.779Z,19.84
2023-06-14T01:49:22.776Z,19.83
2023-06-14T01:49:52.787Z,19.82
2023-06-14T01:50:22.786Z,19.82
2023-06-14T01:50:52.794Z,19.8
2023-06-14T01:51:22.786Z,19.76
2023-06-14T01:51:52.786Z,19.74
2023-06-14T01:52:22.778Z,19.72
2023-06-14T01:52:52.782Z,19.72
2023-06-14T01:53:22.780Z,19.72
2023-06-14T01:53:52.784Z,19.72
2023-06-14T01:54:22.777Z,19.7
2023-06-14T01:54:52.782Z,19.67
2023-06-14T01:55:22.777Z,19.65
2023-06-14T01:55:52.781Z,19.64
2023-06-14T01:56:22.797Z,19.62
2023-06-14T01:56:52.778Z,19.61
2023-06-14T01:57:22.779Z,19.61
2023-06-14T01:57:52.779Z,19.6
2023-06-14T01:58:22.781Z,19.59
2023-06-14T01:58:52.795Z,19.55
2023-06-14T01:59:22.778Z,19.53
2023-06-14T01:59:52.778Z,19.51
2023-06-14T02:00:22.781Z,19.48
2023-06-14T02:00:52.786Z,19.46
2023-06-14T02:01:22.805Z,19.45
2023-06-14T02:01:52.824Z,19.43
2023-06-14T02:02:22.782Z,19.42
2023-06-14T02:02:52.849Z,19.43
2023-06-14T02:03:22.782Z,19.44
2023-06-14T02:03:52.806Z,19.46
2023-06-14T02:04:22.787Z,19.45
2023-06-14T02:04:52.782Z,19.43
2023-06-14T02:05:22.793Z,19.39
2023-06-14T02:05:52.863Z,19.34
2023-06-14T02:06:22.784Z,19.29
2023-06-14T02:06:52.810Z,19.26
2023-06-14T02:07:22.794Z,19.25
2023-06-14T02:07:52.786Z,19.24
2023-06-14T02:08:22.786Z,19.22
2023-06-14T02:08:52.785Z,19.23
2023-06-14T02:09:22.784Z,19.24
2023-06-14T02:09:52.806Z,19.23
2023-06-14T02:10:22.783Z,19.23
2023-06-14T02:10:52.783Z,19.22
2023-06-14T02:11:22.788Z,19.21
2023-06-14T02:11:52.796Z,19.23
2023-06-14T02:12:22.785Z,19.26
2023-06-14T02:12:52.787Z,19.29
2023-06-14T02:13:22.785Z,19.32
2023-06-14T02:13:52.785Z,19.33
2023-06-14T02:14:22.785Z,19.33
2023-06-14T02:14:52.792Z,19.35
2023-06-14T02:15:22.787Z,19.36
2023-06-14T02:15:52.874Z,19.37
2023-06-14T02:16:22.804Z,19.38
2023-06-14T02:16:52.799Z,19.38
2023-06-14T02:17:22.843Z,19.4
2023-06-14T02:17:52.814Z,19.4
2023-06-14T02:18:22.805Z,19.4
2023-06-14T02:18:52.788Z,19.4
2023-06-14T02:19:22.801Z,19.39
2023-06-14T02:19:52.815Z,19.38
2023-06-14T02:20:22.792Z,19.4
2023-06-14T02:20:52.789Z,19.41
2023-06-14T02:21:22.795Z,19.39
2023-06-14T02:21:52.808Z,19.38
2023-06-14T02:22:22.794Z,19.38
2023-06-14T02:22:52.801Z,19.36
2023-06-14T02:23:22.794Z,19.34
2023-06-14T02:23:52.839Z,19.34
2023-06-14T02:24:22.866Z,19.35
2023-06-14T02:25:01.503Z,19.38
2023-06-14T02:25:23.860Z,19.42
2023-06-14T02:25:52.826Z,19.46
2023-06-14T02:26:22.795Z,19.5
2023-06-14T02:26:52.823Z,19.54
2023-06-14T02:27:22.795Z,19.58
2023-06-14T02:27:52.796Z,19.61
2023-06-14T02:28:22.800Z,19.64
2023-06-14T02:28:52.801Z,19.68
2023-06-14T02:29:22.796Z,19.7
2023-06-14T02:29:52.805Z,19.7
2023-06-14T02:30:22.794Z,19.69
2023-06-14T02:30:52.821Z,19.69
2023-06-14T02:31:22.872Z,19.73
2023-06-14T02:31:52.862Z,19.76
2023-06-14T02:32:22.866Z,19.8
2023-06-14T02:32:52.831Z,19.81
2023-06-14T02:33:22.803Z,19.84
2023-06-14T02:33:52.806Z,19.84
2023-06-14T02:34:22.811Z,19.84
2023-06-14T02:34:52.804Z,19.82
2023-06-14T02:35:22.797Z,19.78
2023-06-14T02:35:52.797Z,19.74
2023-06-14T02:36:22.797Z,19.73
2023-06-14T02:36:52.799Z,19.73
2023-06-14T02:37:22.797Z,19.77
2023-06-14T02:37:52.801Z,19.83
2023-06-14T02:38:22.806Z,19.87
2023-06-14T02:38:52.816Z,19.91
2023-06-14T02:39:22.812Z,19.93
2023-06-14T02:39:52.833Z,19.93
2023-06-14T02:40:22.799Z,19.92
2023-06-14T02:40:52.801Z,19.92
2023-06-14T02:41:22.800Z,19.93
2023-06-14T02:41:52.805Z,19.96
2023-06-14T02:42:22.828Z,19.99
2023-06-14T02:42:52.808Z,20.04
2023-06-14T02:43:22.803Z,20.05
2023-06-14T02:43:52.799Z,20.09
2023-06-14T02:44:22.803Z,20.12
2023-06-14T02:44:52.812Z,20.12
2023-06-14T02:45:22.802Z,20.14
2023-06-14T02:45:52.812Z,20.17
2023-06-14T02:46:22.803Z,20.21
2023-06-14T02:46:52.819Z,20.26
2023-06-14T02:47:22.832Z,20.31
2023-06-14T02:47:52.885Z,20.37
2023-06-14T02:48:22.913Z,20.45
2023-06-14T02:49:22.800Z,20.52
2023-06-14T02:49:52.812Z,20.57
2023-06-14T02:50:22.801Z,20.61
2023-06-14T02:50:52.823Z,20.59
2023-06-14T02:51:22.801Z,20.57
2023-06-14T02:51:52.816Z,20.57
2023-06-14T02:52:22.805Z,20.58
2023-06-14T02:52:52.806Z,20.57
2023-06-14T02:53:22.802Z,20.57
2023-06-14T02:53:52.803Z,20.58
2023-06-14T02:54:22.809Z,20.55
2023-06-14T02:54:52.803Z,20.55
2023-06-14T02:55:22.803Z,20.55
2023-06-14T02:55:52.804Z,20.53
2023-06-14T02:56:22.801Z,20.53
2023-06-14T02:56:52.801Z,20.51
2023-06-14T02:57:22.804Z,20.51
2023-06-14T02:57:52.829Z,20.53
2023-06-14T02:58:22.829Z,20.55
2023-06-14T02:58:52.800Z,20.48
2023-06-14T02:59:22.798Z,20.45
2023-06-14T02:59:52.810Z,20.46
2023-06-14T03:00:22.815Z,20.47
2023-06-14T03:00:52.834Z,20.47
2023-06-14T03:01:23.005Z,20.43
2023-06-14T03:01:52.807Z,20.41
2023-06-14T03:02:22.838Z,20.4
2023-06-14T03:02:52.957Z,20.41
2023-06-14T03:03:23.057Z,20.43
2023-06-14T03:03:52.876Z,20.42
2023-06-14T03:04:22.809Z,20.4
2023-06-14T03:04:52.812Z,20.36
2023-06-14T03:05:22.804Z,20.32
2023-06-14T03:05:52.812Z,20.29
2023-06-14T03:06:22.815Z,20.27
2023-06-14T03:06:52.812Z,20.23
2023-06-14T03:07:22.805Z,20.19
2023-06-14T03:07:52.809Z,20.16
2023-06-14T03:08:22.807Z,20.13
2023-06-14T03:08:52.806Z,20.09
2023-06-14T03:09:22.823Z,20.06
2023-06-14T03:09:52.811Z,20.05
2023-06-14T03:10:22.818Z,20.03
2023-06-14T03:10:52.804Z,20.02
2023-06-14T03:11:22.807Z,19.99
2023-06-14T03:11:52.806Z,19.93
2023-06-14T03:12:22.808Z,19.89
2023-06-14T03:12:52.810Z,19.85
2023-06-14T03:13:22.815Z,19.83
2023-06-14T03:13:52.821Z,19.81
2023-06-14T03:14:22.805Z,19.81
2023-06-14T03:14:52.810Z,19.78
2023-06-14T03:15:22.814Z,19.75
2023-06-14T03:15:52.821Z,19.72
2023-06-14T03:16:22.841Z,19.71
2023-06-14T03:16:52.848Z,19.73
2023-06-14T03:17:22.807Z,19.72
2023-06-14T03:17:52.857Z,19.69
2023-06-14T03:18:25.436Z,19.68
2023-06-14T03:18:53.841Z,19.65
2023-06-14T03:19:22.842Z,19.65
2023-06-14T03:19:52.820Z,19.67
2023-06-14T03:20:22.821Z,19.64
2023-06-14T03:20:52.814Z,19.58
2023-06-14T03:21:22.817Z,19.53
2023-06-14T03:21:52.811Z,19.52
2023-06-14T03:22:22.811Z,19.54
2023-06-14T03:22:52.843Z,19.57
2023-06-14T03:23:22.812Z,19.57
2023-06-14T03:23:52.911Z,19.59
2023-06-14T03:24:22.934Z,19.58
2023-06-14T03:24:52.815Z,19.58
2023-06-14T03:25:22.811Z,19.58
2023-06-14T03:25:52.829Z,19.62
2023-06-14T03:26:22.816Z,19.66
2023-06-14T03:26:52.807Z,19.72
2023-06-14T03:27:22.822Z,19.78
2023-06-14T03:27:52.813Z,19.82
2023-06-14T03:28:22.835Z,19.88
2023-06-14T03:28:52.805Z,19.89
2023-06-14T03:29:22.815Z,19.9
2023-06-14T03:29:52.809Z,19.92
2023-06-14T03:30:22.812Z,19.95
2023-06-14T03:30:52.911Z,19.96
2023-06-14T03:31:22.887Z,19.99
2023-06-14T03:31:52.810Z,20
2023-06-14T03:32:22.915Z,20.02
2023-06-14T03:32:52.850Z,20.03
2023-06-14T03:33:22.818Z,20.03
2023-06-14T03:33:52.850Z,20.02
2023-06-14T03:34:22.866Z,20.03
2023-06-14T03:34:52.812Z,20.04
2023-06-14T03:35:22.816Z,20.04
2023-06-14T03:35:52.814Z,20.03
2023-06-14T03:36:22.818Z,20.06
2023-06-14T03:36:52.819Z,20.06
2023-06-14T03:37:22.833Z,20.07
2023-06-14T03:37:52.837Z,20.1
2023-06-14T03:38:22.820Z,20.14
2023-06-14T03:38:52.827Z,20.15
2023-06-14T03:39:22.835Z,20.17
2023-06-14T03:39:52.817Z,20.22
2023-06-14T03:40:22.817Z,20.24
2023-06-14T03:40:52.827Z,20.28
2023-06-14T03:41:22.814Z,20.33
2023-06-14T03:41:52.824Z,20.36
2023-06-14T03:42:22.820Z,20.38
2023-06-14T03:42:52.818Z,20.42
2023-06-14T03:43:22.829Z,20.45
2023-06-14T03:43:52.818Z,20.43
2023-06-14T03:44:22.819Z,20.43
2023-06-14T03:44:52.817Z,20.42
2023-06-14T03:45:22.819Z,20.38
2023-06-14T03:45:52.817Z,20.33
2023-06-14T03:46:22.826Z,20.3
2023-06-14T03:46:52.822Z,20.28
2023-06-14T03:47:22.884Z,20.28
2023-06-14T03:47:52.953Z,20.28
2023-06-14T03:48:22.894Z,20.27
2023-06-14T03:48:52.816Z,20.24
2023-06-14T03:49:22.836Z,20.21
2023-06-14T03:49:52.832Z,20.21
2023-06-14T03:50:22.815Z,20.2
2023-06-14T03:50:52.816Z,20.15
2023-06-14T03:51:22.830Z,20.11
2023-06-14T03:51:52.895Z,20.08
2023-06-14T03:52:22.816Z,20.02
2023-06-14T03:52:52.816Z,19.98
2023-06-14T03:53:22.818Z,19.96
2023-06-14T03:54:11.285Z,19.92
2023-06-14T03:54:59.094Z,19.87
2023-06-14T03:55:56.090Z,19.82
2023-06-14T03:56:09.336Z,19.82
2023-06-14T03:56:23.777Z,19.82
2023-06-14T03:56:52.821Z,19.82
2023-06-14T03:57:22.831Z,19.76
2023-06-14T03:57:52.829Z,19.74
2023-06-14T03:58:22.821Z,19.75
2023-06-14T03:58:52.821Z,19.75
2023-06-14T03:59:22.820Z,19.68
2023-06-14T03:59:52.819Z,19.63
2023-06-14T04:00:22.820Z,19.64
2023-06-14T04:00:52.820Z,19.64
2023-06-14T04:01:22.823Z,19.66
2023-06-14T04:01:52.820Z,19.68
2023-06-14T04:02:22.912Z,19.72
2023-06-14T04:02:52.887Z,19.76
2023-06-14T04:03:22.859Z,19.81
2023-06-14T04:03:52.887Z,19.83
2023-06-14T04:04:22.825Z,19.83
2023-06-14T04:04:52.822Z,19.82
2023-06-14T04:05:22.870Z,19.78
2023-06-14T04:05:52.925Z,19.75
2023-06-14T04:06:22.827Z,19.74
2023-06-14T04:06:52.836Z,19.71
2023-06-14T04:07:22.827Z,19.7
2023-06-14T04:07:52.824Z,19.66
2023-06-14T04:08:22.831Z,19.66
2023-06-14T04:08:52.828Z,19.66
2023-06-14T04:09:22.825Z,19.66
2023-06-14T04:09:52.828Z,19.68
2023-06-14T04:10:22.866Z,19.69
2023-06-14T04:10:52.841Z,19.67
2023-06-14T04:11:22.822Z,19.64
2023-06-14T04:11:52.830Z,19.63
2023-06-14T04:12:22.830Z,19.6
2023-06-14T04:12:52.896Z,19.58
2023-06-14T04:13:22.879Z,19.57
2023-06-14T04:13:52.837Z,19.6
2023-06-14T04:14:22.826Z,19.65
2023-06-14T04:14:52.824Z,19.68
2023-06-14T04:15:22.990Z,19.72
2023-06-14T04:15:52.875Z,19.77
2023-06-14T04:16:22.863Z,19.79
2023-06-14T04:16:52.831Z,19.81
2023-06-14T04:17:22.834Z,19.82
2023-06-14T04:17:52.887Z,19.82
2023-06-14T04:18:24.754Z,19.81
2023-06-14T04:18:52.845Z,19.79
2023-06-14T04:19:22.836Z,19.8
2023-06-14T04:19:52.825Z,19.81
2023-06-14T04:20:22.836Z,19.83
2023-06-14T04:20:52.832Z,19.82
2023-06-14T04:21:22.828Z,19.84
2023-06-14T04:21:52.830Z,19.89
2023-06-14T04:22:22.833Z,19.97
2023-06-14T04:22:52.836Z,20.05
2023-06-14T04:23:22.833Z,20.08
2023-06-14T04:23:52.870Z,20.09
2023-06-14T04:24:22.874Z,20.11
2023-06-14T04:25:04.412Z,20.18
2023-06-14T04:25:24.475Z,20.28
2023-06-14T04:25:52.831Z,20.38
2023-06-14T04:26:23.931Z,20.49
2023-06-14T04:26:52.833Z,20.61
2023-06-14T04:27:22.838Z,20.68
2023-06-14T04:27:52.833Z,20.75
2023-06-14T04:28:22.830Z,20.8
2023-06-14T04:28:52.836Z,20.89
2023-06-14T04:29:22.829Z,20.99
2023-06-14T04:29:52.834Z,21.07
2023-06-14T04:30:22.829Z,21.17
2023-06-14T04:30:52.842Z,21.21
2023-06-14T04:31:22.835Z,21.23
2023-06-14T04:31:53.121Z,21.24
2023-06-14T04:32:22.965Z,21.25
2023-06-14T04:32:52.872Z,21.21
2023-06-14T04:33:22.958Z,21.2
2023-06-14T04:33:52.914Z,21.25
2023-06-14T04:34:22.870Z,21.3
2023-06-14T04:34:52.850Z,21.3
2023-06-14T04:35:22.834Z,21.33
2023-06-14T04:35:52.844Z,21.34
2023-06-14T04:36:22.835Z,21.43
2023-06-14T04:36:52.837Z,21.46
2023-06-14T04:37:22.856Z,21.51
2023-06-14T04:37:52.833Z,21.56
2023-06-14T04:38:22.832Z,21.64
2023-06-14T04:38:52.834Z,21.76
2023-06-14T04:39:22.845Z,21.85
2023-06-14T04:39:52.846Z,21.96
2023-06-14T04:40:22.842Z,22.05
2023-06-14T04:40:52.844Z,22.16
2023-06-14T04:41:22.835Z,22.25
2023-06-14T04:41:52.840Z,22.36
2023-06-14T04:42:22.836Z,22.5
2023-06-14T04:42:52.835Z,22.63
2023-06-14T04:43:22.841Z,22.75
2023-06-14T04:43:52.836Z,22.86
2023-06-14T04:44:22.837Z,22.89
2023-06-14T04:44:52.847Z,22.97
2023-06-14T04:45:22.854Z,23.08
2023-06-14T04:45:52.885Z,23.2
2023-06-14T04:46:22.879Z,23.34
2023-06-14T04:46:52.896Z,23.44
2023-06-14T04:47:22.843Z,23.54
2023-06-14T04:47:52.892Z,23.62
2023-06-14T04:48:22.837Z,23.7
2023-06-14T04:48:52.848Z,23.78
2023-06-14T04:49:23.391Z,23.87
2023-06-14T04:49:52.838Z,23.99
2023-06-14T04:50:22.882Z,24.13
2023-06-14T04:50:52.850Z,24.22
2023-06-14T04:51:22.850Z,24.27
2023-06-14T04:51:52.853Z,24.37
2023-06-14T04:52:22.871Z,24.49
2023-06-14T04:52:52.854Z,24.63
2023-06-14T04:53:22.840Z,24.73
2023-06-14T04:53:52.842Z,24.85
2023-06-14T04:54:22.847Z,25
2023-06-14T04:54:52.841Z,25.15
2023-06-14T04:55:22.855Z,25.27
2023-06-14T04:55:52.872Z,25.33
2023-06-14T04:56:22.864Z,25.38
2023-06-14T04:56:52.842Z,25.33
2023-06-14T04:57:22.864Z,25.16
2023-06-14T04:57:52.843Z,24.98
2023-06-14T04:58:22.851Z,24.85
2023-06-14T04:58:52.845Z,24.73
2023-06-14T04:59:22.852Z,24.57
2023-06-14T04:59:52.845Z,24.39
2023-06-14T05:00:22.846Z,24.28
2023-06-14T05:00:52.845Z,24.11
2023-06-14T05:01:22.926Z,23.91
2023-06-14T05:01:52.921Z,23.79
2023-06-14T05:02:22.859Z,23.64
2023-06-14T05:02:52.901Z,23.46
2023-06-14T05:03:22.874Z,23.32
2023-06-14T05:03:52.901Z,23.25
2023-06-14T05:04:22.848Z,23.15
2023-06-14T05:04:52.866Z,23.06
2023-06-14T05:05:22.859Z,23.02
2023-06-14T05:05:52.853Z,23.01
2023-06-14T05:06:22.844Z,22.97
2023-06-14T05:06:52.849Z,22.86
2023-06-14T05:07:22.849Z,22.84
2023-06-14T05:07:52.861Z,22.84
2023-06-14T05:08:22.842Z,22.77
2023-06-14T05:08:52.852Z,22.79
2023-06-14T05:09:22.848Z,22.77
2023-06-14T05:09:52.876Z,22.73
2023-06-14T05:10:22.846Z,22.68
2023-06-14T05:10:52.911Z,22.67
2023-06-14T05:11:22.851Z,22.65
2023-06-14T05:11:52.853Z,22.62
2023-06-14T05:12:22.849Z,22.69
2023-06-14T05:12:52.845Z,22.79
2023-06-14T05:13:22.849Z,22.91
2023-06-14T05:13:52.854Z,22.95
2023-06-14T05:14:22.848Z,22.99
2023-06-14T05:14:52.870Z,23.03
2023-06-14T05:15:22.853Z,23.15
2023-06-14T05:15:52.861Z,23.25
2023-06-14T05:16:22.871Z,23.39
2023-06-14T05:16:52.851Z,23.54
2023-06-14T05:17:22.888Z,23.69
2023-06-14T05:17:52.871Z,23.9
2023-06-14T05:18:22.867Z,24.15
2023-06-14T05:18:52.846Z,24.4
2023-06-14T05:19:22.848Z,24.64
2023-06-14T05:19:52.846Z,24.83
2023-06-14T05:20:22.848Z,25.12
2023-06-14T05:20:52.863Z,25.34
2023-06-14T05:21:22.859Z,25.53
2023-06-14T05:21:52.852Z,25.64
2023-06-14T05:22:22.847Z,25.8
2023-06-14T05:22:52.871Z,26.03
2023-06-14T05:23:22.849Z,26.25
2023-06-14T05:23:52.868Z,26.43
2023-06-14T05:24:22.958Z,26.66
2023-06-14T05:24:52.858Z,26.83
2023-06-14T05:25:22.849Z,27.08
2023-06-14T05:25:52.857Z,27.34
2023-06-14T05:26:22.851Z,27.56
2023-06-14T05:26:52.879Z,27.52
2023-06-14T05:27:22.909Z,27.58
2023-06-14T05:27:52.850Z,27.69
2023-06-14T05:28:22.847Z,27.83
2023-06-14T05:28:52.847Z,28
2023-06-14T05:29:22.848Z,28.2
2023-06-14T05:29:52.846Z,28.39
2023-06-14T05:30:22.850Z,28.5
2023-06-14T05:30:52.848Z,28.62
2023-06-14T05:31:22.893Z,28.76
2023-06-14T05:31:52.874Z,28.75
2023-06-14T05:32:22.872Z,28.7
2023-06-14T05:32:52.953Z,28.64
2023-06-14T05:33:22.932Z,28.65
2023-06-14T05:33:52.896Z,28.68
2023-06-14T05:34:22.856Z,28.75
2023-06-14T05:34:52.856Z,28.8
2023-06-14T05:35:22.850Z,28.77
2023-06-14T05:35:52.858Z,29.03
2023-06-14T05:36:22.856Z,29.63
2023-06-14T05:36:52.859Z,30.58
2023-06-14T05:37:22.856Z,31.58
2023-06-14T05:37:52.855Z,32.93
2023-06-14T05:38:22.859Z,34.56
2023-06-14T05:38:52.855Z,36.01
2023-06-14T05:39:22.855Z,37.39
2023-06-14T05:39:52.857Z,38.75
2023-06-14T05:40:22.857Z,39.77
2023-06-14T05:40:52.891Z,40.14
2023-06-14T05:41:22.869Z,40.01
2023-06-14T05:41:52.869Z,39.41
2023-06-14T05:42:22.859Z,38.55
2023-06-14T05:42:52.860Z,37.61
2023-06-14T05:43:22.862Z,36.71
2023-06-14T05:43:52.857Z,36.19
2023-06-14T05:44:22.869Z,35.79
2023-06-14T05:44:52.859Z,35.42
2023-06-14T05:45:22.881Z,35.15
2023-06-14T05:45:52.860Z,35.01
2023-06-14T05:46:22.875Z,34.98
2023-06-14T05:46:52.917Z,35.14
2023-06-14T05:47:22.902Z,35.17
2023-06-14T05:47:52.882Z,34.99
2023-06-14T05:48:22.883Z,34.69
2023-06-14T05:48:52.881Z,34.44
2023-06-14T05:49:22.864Z,34.11
2023-06-14T05:49:52.871Z,33.8
2023-06-14T05:50:22.868Z,33.32
2023-06-14T05:50:52.880Z,32.83
2023-06-14T05:51:22.861Z,32.41
2023-06-14T05:51:52.869Z,31.98
2023-06-14T05:52:22.890Z,31.7
2023-06-14T05:52:52.866Z,31.53
2023-06-14T05:53:22.870Z,31.34
2023-06-14T05:53:52.867Z,31.2
2023-06-14T05:54:22.863Z,31
2023-06-14T05:54:52.891Z,30.76
2023-06-14T05:55:22.872Z,30.53
2023-06-14T05:55:52.905Z,30.37
2023-06-14T05:56:22.869Z,30.27
2023-06-14T05:56:52.876Z,30.19
2023-06-14T05:57:22.874Z,30.16
2023-06-14T05:57:52.868Z,30.21
2023-06-14T05:58:22.866Z,30.31
2023-06-14T05:58:52.871Z,30.44
2023-06-14T05:59:22.871Z,30.65
2023-06-14T05:59:52.868Z,30.86
2023-06-14T06:00:22.888Z,31.21
2023-06-14T06:00:52.867Z,31.54
2023-06-14T06:01:22.866Z,31.81
2023-06-14T06:01:52.909Z,31.95
2023-06-14T06:02:22.893Z,32.07
2023-06-14T06:02:53.002Z,32.28
2023-06-14T06:03:22.945Z,32.45
2023-06-14T06:03:52.973Z,32.69
2023-06-14T06:04:22.912Z,32.92
2023-06-14T06:04:52.870Z,32.91
2023-06-14T06:05:22.870Z,32.88
2023-06-14T06:05:52.871Z,32.73
2023-06-14T06:06:22.872Z,32.59
2023-06-14T06:06:52.877Z,32.49
2023-06-14T06:07:22.870Z,32.42
2023-06-14T06:07:52.869Z,32.33
2023-06-14T06:08:22.874Z,32.17
2023-06-14T06:08:52.877Z,31.97
2023-06-14T06:09:22.879Z,31.74
2023-06-14T06:09:52.877Z,31.65
2023-06-14T06:10:22.875Z,31.52
2023-06-14T06:10:52.930Z,31.4
2023-06-14T06:11:22.882Z,31.24
2023-06-14T06:11:54.581Z,31.03
2023-06-14T06:12:22.880Z,30.91
2023-06-14T06:12:52.882Z,30.9
2023-06-14T06:13:22.876Z,30.93
2023-06-14T06:13:52.887Z,31.01
2023-06-14T06:14:22.880Z,30.88
2023-06-14T06:14:52.882Z,30.8
2023-06-14T06:15:22.881Z,30.56
2023-06-14T06:15:52.875Z,30.35
2023-06-14T06:16:22.897Z,30.21
2023-06-14T06:16:52.906Z,30.21
2023-06-14T06:17:22.874Z,30.2
2023-06-14T06:17:56.692Z,30.22
2023-06-14T06:18:23.923Z,30.22
2023-06-14T06:18:52.873Z,30.2
2023-06-14T06:19:22.881Z,30.11
2023-06-14T06:19:52.883Z,30.15
2023-06-14T06:20:22.874Z,30.19
2023-06-14T06:20:52.880Z,30.15
2023-06-14T06:21:22.889Z,30.06
2023-06-14T06:21:52.881Z,30.04
2023-06-14T06:22:22.877Z,29.9
2023-06-14T06:22:52.910Z,29.72
2023-06-14T06:23:22.893Z,29.66
2023-06-14T06:23:52.922Z,29.57
2023-06-14T06:24:22.973Z,29.42
2023-06-14T06:24:52.887Z,29.34
2023-06-14T06:25:22.881Z,29.28
2023-06-14T06:25:52.895Z,29.25
2023-06-14T06:26:22.878Z,29.27
2023-06-14T06:26:52.885Z,29.23
2023-06-14T06:27:22.884Z,29.25
2023-06-14T06:27:52.889Z,29.27
2023-06-14T06:28:22.885Z,29.24